createdAt,value
2018-06-20T00:00:09.800Z,12.83
2018-06-20T00:02:40.032Z,11.00
2018-06-20T00:05:07.995Z,18.33
2018-06-20T00:07:35.930Z,13.47
2018-06-20T00:10:04.982Z,8.80
2018-06-20T00:12:33.257Z,6.40
2018-06-20T00:15:02.404Z,15.17
2018-06-20T00:17:30.563Z,15.23
2018-06-20T00:19:58.507Z,9.90
2018-06-20T00:22:27.111Z,9.90
2018-06-20T00:24:55.412Z,16.57
2018-06-20T00:27:23.507Z,16.23
2018-06-20T00:29:52.793Z,14.83
2018-06-20T00:32:21.166Z,13.27
2018-06-20T00:34:49.520Z,12.80
2018-06-20T00:37:18.098Z,17.23
2018-06-20T00:39:46.020Z,12.23
2018-06-20T00:42:13.968Z,9.07
2018-06-20T00:44:42.203Z,14.47
2018-06-20T00:47:10.312Z,13.33
2018-06-20T00:49:38.972Z,10.33
2018-06-20T00:52:08.737Z,11.10
2018-06-20T00:54:36.549Z,8.20
2018-06-20T00:57:05.778Z,9.53
2018-06-20T00:59:34.469Z,21.90
2018-06-20T01:02:02.679Z,12.80
2018-06-20T01:04:30.864Z,12.50
2018-06-20T01:06:59.033Z,16.07
2018-06-20T01:09:27.324Z,16.20
2018-06-20T01:11:55.215Z,16.87
2018-06-20T01:14:23.178Z,17.60
2018-06-20T01:16:52.030Z,21.03
2018-06-20T01:19:20.910Z,15.50
2018-06-20T01:21:49.032Z,16.83
2018-06-20T01:24:17.783Z,20.47
2018-06-20T01:26:45.704Z,12.00
2018-06-20T01:29:14.203Z,11.73
2018-06-20T01:31:42.563Z,14.97
2018-06-20T01:34:10.503Z,19.53
2018-06-20T01:36:51.279Z,15.90
2018-06-20T01:39:19.796Z,14.13
2018-06-20T01:41:49.513Z,15.23
2018-06-20T01:44:18.339Z,14.50
2018-06-20T01:46:46.503Z,15.57
2018-06-20T01:49:14.666Z,12.67
2018-06-20T01:51:42.704Z,12.53
2018-06-20T01:54:10.775Z,15.83
2018-06-20T01:56:39.339Z,11.33
2018-06-20T01:59:07.252Z,18.30
2018-06-20T02:01:35.585Z,17.57
2018-06-20T02:04:03.702Z,13.00
2018-06-20T02:06:31.749Z,22.37
2018-06-20T02:09:07.565Z,17.40
2018-06-20T02:11:40.023Z,10.70
2018-06-20T02:14:08.816Z,13.03
2018-06-20T02:16:37.456Z,18.97
2018-06-20T02:19:05.471Z,20.80
2018-06-20T02:21:34.521Z,14.37
2018-06-20T02:24:03.518Z,18.43
2018-06-20T02:26:32.026Z,10.50
2018-06-20T02:29:00.373Z,18.77
2018-06-20T02:31:28.386Z,21.70
2018-06-20T02:33:56.420Z,16.00
2018-06-20T02:36:31.522Z,14.13
2018-06-20T02:39:00.804Z,13.93
2018-06-20T02:41:29.138Z,25.80
2018-06-20T02:43:57.917Z,19.47
2018-06-20T02:46:26.712Z,20.80
2018-06-20T02:48:55.808Z,11.43
2018-06-20T02:51:24.758Z,14.73
2018-06-20T02:53:54.490Z,18.67
2018-06-20T02:56:22.593Z,20.43
2018-06-20T02:58:50.861Z,13.27
2018-06-20T03:01:20.106Z,13.60
2018-06-20T03:03:48.203Z,18.27
2018-06-20T03:06:19.021Z,13.80
2018-06-20T03:08:51.611Z,15.97
2018-06-20T03:11:20.649Z,19.90
2018-06-20T03:13:49.160Z,14.27
2018-06-20T03:16:19.578Z,12.03
2018-06-20T03:18:49.524Z,20.27
2018-06-20T03:21:23.564Z,21.07
2018-06-20T03:23:52.011Z,12.67
2018-06-20T03:26:21.848Z,18.27
2018-06-20T03:28:51.903Z,13.23
2018-06-20T03:31:20.210Z,19.73
2018-06-20T03:33:48.993Z,15.87
2018-06-20T03:36:17.455Z,17.43
2018-06-20T03:38:45.545Z,15.73
2018-06-20T03:41:14.183Z,14.20
2018-06-20T03:43:43.664Z,15.43
2018-06-20T03:46:12.651Z,14.47
2018-06-20T03:48:43.843Z,11.00
2018-06-20T03:51:12.259Z,10.90
2018-06-20T03:53:40.493Z,19.53
2018-06-20T03:56:08.409Z,13.33
2018-06-20T03:58:36.630Z,12.57
2018-06-20T04:01:06.238Z,13.43
2018-06-20T04:03:34.423Z,19.03
2018-06-20T04:06:02.335Z,17.20
2018-06-20T04:08:30.300Z,15.10
2018-06-20T04:10:58.424Z,12.40
2018-06-20T04:13:30.944Z,8.40
2018-06-20T04:16:01.754Z,13.70
2018-06-20T04:18:40.592Z,18.33
2018-06-20T04:21:11.929Z,13.67
2018-06-20T04:23:40.186Z,14.10
2018-06-20T04:26:09.277Z,11.67
2018-06-20T04:28:41.907Z,16.77
2018-06-20T04:31:11.267Z,21.50
2018-06-20T04:33:40.916Z,16.40
2018-06-20T04:36:10.108Z,17.60
2018-06-20T04:38:40.033Z,20.60
2018-06-20T04:41:08.879Z,15.50
2018-06-20T04:43:40.625Z,16.33
2018-06-20T04:46:12.093Z,13.43
2018-06-20T04:48:48.098Z,13.93
2018-06-20T04:51:19.315Z,13.70
2018-06-20T04:53:48.978Z,18.00
2018-06-20T04:56:25.123Z,19.03
2018-06-20T04:59:02.285Z,20.07
2018-06-20T05:04:20.270Z,18.63
2018-06-20T05:06:55.450Z,11.47
2018-06-20T05:09:27.201Z,14.40
2018-06-20T05:12:04.000Z,12.77
2018-06-20T05:14:33.604Z,11.00
2018-06-20T05:17:09.818Z,11.17
2018-06-20T05:19:47.422Z,11.30
2018-06-20T05:22:27.646Z,12.30
2018-06-20T05:25:00.798Z,12.27
2018-06-20T05:27:31.902Z,15.33
2018-06-20T05:30:03.653Z,18.07
2018-06-20T05:38:00.810Z,11.33
2018-06-20T05:40:46.880Z,5.60
2018-06-20T05:43:20.659Z,8.87
2018-06-20T05:46:02.986Z,16.93
2018-06-20T05:51:26.687Z,14.23
2018-06-20T05:56:52.697Z,13.10
2018-06-20T05:59:39.230Z,14.10
2018-06-20T06:02:07.409Z,10.00
2018-06-20T06:04:36.121Z,6.67
2018-06-20T06:07:05.313Z,18.70
2018-06-20T06:09:36.683Z,13.27
2018-06-20T06:12:05.254Z,11.93
2018-06-20T06:14:33.355Z,11.03
2018-06-20T06:17:02.311Z,19.40
2018-06-20T06:19:40.611Z,12.33
2018-06-20T06:22:26.204Z,9.70
2018-06-20T06:25:02.193Z,10.03
2018-06-20T06:27:44.854Z,11.30
2018-06-20T06:31:07.916Z,5.73
2018-06-20T06:36:31.040Z,9.60
2018-06-20T06:39:11.087Z,10.47
2018-06-20T06:41:52.125Z,13.57
2018-06-20T06:47:31.063Z,11.97
2018-06-20T06:50:24.223Z,9.60
2018-06-20T06:53:03.680Z,7.10
2018-06-20T06:55:46.738Z,11.10
2018-06-20T06:58:39.747Z,6.20
2018-06-20T07:06:49.615Z,10.60
2018-06-20T07:09:19.165Z,9.77
2018-06-20T07:11:48.397Z,14.00
2018-06-20T07:17:11.835Z,12.70
2018-06-20T07:22:40.180Z,10.57
2018-06-20T07:25:24.280Z,7.87
2018-06-20T07:30:42.785Z,10.40
2018-06-20T07:33:10.830Z,9.80
2018-06-20T07:35:42.870Z,12.90
2018-06-20T07:38:29.916Z,7.97
2018-06-20T07:47:07.850Z,7.93
2018-06-20T07:49:47.707Z,7.70
2018-06-20T08:01:06.671Z,11.50
2018-06-20T08:03:44.501Z,10.63
2018-06-20T08:06:24.353Z,12.67
2018-06-20T08:09:00.455Z,7.00
2018-06-20T08:11:39.966Z,14.13
2018-06-20T08:14:24.269Z,14.50
2018-06-20T08:17:02.981Z,18.70
2018-06-20T08:22:46.370Z,9.10
2018-06-20T08:28:19.488Z,13.00
2018-06-20T08:44:40.340Z,14.40
2018-06-20T08:47:13.308Z,6.60
2018-06-20T08:52:31.284Z,6.83
2018-06-20T08:55:15.412Z,4.33
2018-06-20T08:57:43.474Z,5.43
2018-06-20T09:00:12.748Z,3.60
2018-06-20T09:02:51.779Z,5.03
2018-06-20T09:05:26.351Z,6.90
2018-06-20T09:08:05.252Z,8.20
2018-06-20T09:10:43.965Z,6.83
2018-06-20T09:13:23.593Z,20.07
2018-06-20T09:16:16.651Z,5.67
2018-06-20T09:24:19.710Z,3.47
2018-06-20T09:26:53.763Z,8.90
2018-06-20T09:29:24.375Z,3.63
2018-06-20T11:05:18.243Z,5.93
2018-06-20T11:22:01.646Z,3.13
2018-06-20T11:44:45.029Z,7.93
2018-06-20T12:06:34.971Z,10.60
2018-06-20T12:12:03.507Z,6.50
2018-06-20T16:41:24.053Z,12.87
2018-06-20T16:43:52.866Z,14.00
2018-06-20T16:46:22.682Z,12.30
2018-06-20T16:48:58.264Z,13.97
2018-06-20T16:51:27.440Z,11.53
2018-06-20T16:53:56.024Z,12.23
2018-06-20T16:56:24.891Z,14.60
2018-06-20T16:58:54.739Z,13.80
2018-06-20T17:01:29.354Z,13.70
2018-06-20T17:04:04.134Z,16.80
2018-06-20T17:06:37.964Z,11.70
2018-06-20T17:41:34.234Z,15.50
2018-06-20T18:16:47.113Z,9.77
2018-06-20T18:22:23.740Z,18.13
2018-06-20T18:24:58.467Z,12.77
2018-06-20T18:27:37.747Z,14.33
2018-06-20T18:32:50.486Z,12.80
2018-06-20T18:35:31.293Z,11.90
2018-06-20T18:38:03.410Z,16.10
2018-06-20T18:43:07.096Z,11.97
2018-06-20T18:45:37.198Z,16.70
2018-06-20T18:48:27.502Z,16.23
2018-06-20T18:51:00.916Z,13.37
2018-06-20T18:58:37.982Z,16.97
2018-06-20T19:06:26.487Z,17.00
2018-06-20T19:48:18.958Z,15.35
2018-06-20T19:50:49.385Z,21.70
2018-06-20T19:53:23.849Z,25.30
2018-06-20T19:58:41.895Z,19.27
2018-06-20T20:14:00.784Z,19.30
2018-06-20T20:46:05.685Z,18.20
2018-06-20T20:51:14.024Z,22.80
2018-06-20T20:53:46.555Z,18.90
2018-06-20T20:56:15.797Z,28.77
2018-06-20T20:58:43.625Z,28.03
2018-06-20T21:03:49.072Z,30.37
2018-06-20T21:06:20.238Z,29.53
2018-06-20T21:08:49.157Z,28.03
2018-06-20T21:11:20.437Z,30.30
2018-06-20T21:13:48.468Z,34.17
2018-06-20T21:16:17.255Z,27.93
2018-06-20T21:18:45.240Z,33.03
2018-06-20T21:21:13.351Z,28.87
2018-06-20T21:23:42.471Z,32.37
2018-06-20T21:26:10.524Z,27.40
2018-06-20T21:28:38.380Z,30.13
2018-06-20T21:31:06.515Z,34.50
2018-06-20T21:33:34.378Z,28.97
2018-06-20T21:36:03.284Z,35.80
2018-06-20T21:38:31.208Z,32.33
2018-06-20T21:41:07.005Z,32.13
2018-06-20T21:43:35.179Z,27.67
2018-06-20T21:46:04.462Z,37.80
2018-06-20T21:48:33.266Z,33.73
2018-06-20T21:51:01.118Z,43.13
2018-06-20T21:53:29.157Z,28.17
2018-06-20T21:55:57.216Z,32.13
2018-06-20T21:58:25.205Z,32.60
2018-06-20T22:00:53.314Z,38.57
2018-06-20T22:03:22.835Z,37.10
2018-06-20T22:05:50.846Z,44.20
2018-06-20T22:08:18.962Z,43.73
2018-06-20T22:10:47.133Z,34.60
2018-06-20T22:13:15.324Z,42.47
2018-06-20T22:15:43.319Z,36.40
2018-06-20T22:18:11.517Z,40.27
2018-06-20T22:20:42.453Z,37.33
2018-06-20T22:23:10.431Z,32.13
2018-06-20T22:25:38.448Z,36.27
2018-06-20T22:28:06.286Z,32.63
2018-06-20T22:30:34.173Z,29.40
2018-06-20T22:33:02.540Z,44.07
2018-06-20T22:35:30.741Z,35.77
2018-06-20T22:37:58.849Z,46.33
2018-06-20T22:40:26.893Z,41.23
2018-06-20T22:42:54.760Z,39.03
2018-06-20T22:45:22.520Z,37.93
2018-06-20T22:47:50.752Z,42.10
2018-06-20T22:50:18.606Z,38.10
2018-06-20T22:52:46.542Z,32.00
2018-06-20T22:55:14.485Z,40.40
2018-06-20T22:57:42.645Z,43.40
2018-06-20T23:00:11.229Z,53.67
2018-06-20T23:02:39.061Z,39.30
2018-06-20T23:05:07.136Z,40.37
2018-06-20T23:07:35.248Z,48.67
2018-06-20T23:10:03.355Z,54.10
2018-06-20T23:12:31.276Z,40.93
2018-06-20T23:14:59.326Z,45.47
2018-06-20T23:17:27.343Z,44.03
2018-06-20T23:19:55.277Z,44.50
2018-06-20T23:22:23.312Z,47.40
2018-06-20T23:24:51.308Z,41.53
2018-06-20T23:27:19.360Z,44.77
2018-06-20T23:29:47.166Z,41.87
2018-06-20T23:32:15.214Z,44.80
2018-06-20T23:34:43.046Z,41.00
2018-06-20T23:37:10.922Z,47.20
2018-06-20T23:39:38.712Z,45.00
2018-06-20T23:42:06.578Z,46.70
2018-06-20T23:44:34.346Z,50.40
2018-06-20T23:47:02.360Z,52.00
2018-06-20T23:49:30.284Z,55.17
2018-06-20T23:51:58.174Z,47.90
2018-06-20T23:54:26.146Z,50.07
2018-06-20T23:56:53.989Z,52.60
2018-06-20T23:59:21.935Z,48.07
